KMVL/MVL METAR and TAF weather

Enter ICAO airport designator
Station Type Date Time Source
KMVL METAR 2021/04/13 05:54 UTC NOAA

KMVL 130554Z AUTO 00000KT 10SM CLR 02/01 A3000 RMK AO2 SLP165 T00220006 10139 20017 51010


Station Type Date Time Source
KMVL Decoded METAR 2021/04/13 05:54 UTC NOAA

MORRISVILLE STOWE STATE AIRPORT , VT, United States (KMVL) 44-32N 72-37W 223M
Apr 13, 2021 - 01:54 AM EDT / 2021.04.13 0554 UTC
Wind: Calm:0
Visibility: 10 mile(s):0
Sky conditions: clear
Temperature: 36.0 F (2.2 C)
Dew Point: 33.1 F (0.6 C)
Relative Humidity: 89%
Pressure (altimeter): 30 in. Hg (1015 hPa)
Pressure tendency: 0.03 inches (1.0 hPa) higher than three hours ago
ob: KMVL 130554Z AUTO 00000KT 10SM CLR 02/01 A3000 RMK AO2 SLP165 T00220006 10139 20017 51010
cycle: 6

Station Type Date Time Source
KMVL TAF UTC NOAA

Error!

Example: see airport list